sensor_id;sensor_type;location;lat;lon;timestamp;temperature;humidity
33011;DHT22;19370;48.562;9.196;2024-01-16T00:01:08;-0.50;99.90
33011;DHT22;19370;48.562;9.196;2024-01-16T00:03:34;-0.50;99.90
33011;DHT22;19370;48.562;9.196;2024-01-16T00:06:08;-0.50;99.90
33011;DHT22;19370;48.562;9.196;2024-01-16T00:08:34;-0.40;99.90
33011;DHT22;19370;48.562;9.196;2024-01-16T00:11:01;-0.60;99.90
33011;DHT22;19370;48.562;9.196;2024-01-16T00:13:41;-0.50;99.90
33011;DHT22;19370;48.562;9.196;2024-01-16T00:16:09;-0.50;99.90
33011;DHT22;19370;48.562;9.196;2024-01-16T00:18:40;-0.50;99.90
33011;DHT22;19370;48.562;9.196;2024-01-16T00:21:06;-0.50;99.90
33011;DHT22;19370;48.562;9.196;2024-01-16T00:23:32;-0.50;99.90
33011;DHT22;19370;48.562;9.196;2024-01-16T00:25:58;-0.50;99.90
33011;DHT22;19370;48.562;9.196;2024-01-16T00:28:27;-0.60;99.90
33011;DHT22;19370;48.562;9.196;2024-01-16T00:31:07;-0.60;99.90
33011;DHT22;19370;48.562;9.196;2024-01-16T00:33:34;-0.60;99.90
33011;DHT22;19370;48.562;9.196;2024-01-16T00:36:00;-0.60;99.90
33011;DHT22;19370;48.562;9.196;2024-01-16T00:38:26;-0.50;99.90
33011;DHT22;19370;48.562;9.196;2024-01-16T00:40:55;-0.50;99.90
33011;DHT22;19370;48.562;9.196;2024-01-16T00:43:20;-0.50;99.90
33011;DHT22;19370;48.562;9.196;2024-01-16T00:45:49;-0.50;99.90
33011;DHT22;19370;48.562;9.196;2024-01-16T00:48:15;-0.50;99.90
33011;DHT22;19370;48.562;9.196;2024-01-16T00:50:48;-0.50;99.90
33011;DHT22;19370;48.562;9.196;2024-01-16T00:53:16;-0.50;99.90
33011;DHT22;19370;48.562;9.196;2024-01-16T00:55:44;-0.50;99.90
33011;DHT22;19370;48.562;9.196;2024-01-16T00:58:13;-0.50;99.90
33011;DHT22;19370;48.562;9.196;2024-01-16T01:00:39;-0.50;99.90
33011;DHT22;19370;48.562;9.196;2024-01-16T01:03:10;-0.40;99.90
33011;DHT22;19370;48.562;9.196;2024-01-16T01:05:37;-0.40;99.90
33011;DHT22;19370;48.562;9.196;2024-01-16T01:08:04;-0.40;99.90
33011;DHT22;19370;48.562;9.196;2024-01-16T01:10:29;-0.30;99.90
33011;DHT22;19370;48.562;9.196;2024-01-16T01:12:55;-0.30;99.90
33011;DHT22;19370;48.562;9.196;2024-01-16T01:15:21;-0.40;99.90
33011;DHT22;19370;48.562;9.196;2024-01-16T01:17:49;-0.30;99.90
33011;DHT22;19370;48.562;9.196;2024-01-16T01:20:14;-0.30;99.90
33011;DHT22;19370;48.562;9.196;2024-01-16T01:22:43;-0.50;99.90
33011;DHT22;19370;48.562;9.196;2024-01-16T01:25:12;-0.40;99.90
33011;DHT22;19370;48.562;9.196;2024-01-16T01:27:52;-0.50;99.90
33011;DHT22;19370;48.562;9.196;2024-01-16T01:30:25;-0.50;99.90
33011;DHT22;19370;48.562;9.196;2024-01-16T01:32:50;-0.60;99.90
33011;DHT22;19370;48.562;9.196;2024-01-16T01:35:20;-0.50;99.90
33011;DHT22;19370;48.562;9.196;2024-01-16T01:37:46;-0.50;99.90
33011;DHT22;19370;48.562;9.196;2024-01-16T01:40:20;-0.50;99.90
33011;DHT22;19370;48.562;9.196;2024-01-16T01:43:21;-0.50;99.90
33011;DHT22;19370;48.562;9.196;2024-01-16T01:48:34;-0.60;99.90
33011;DHT22;19370;48.562;9.196;2024-01-16T01:51:06;-0.60;99.90
33011;DHT22;19370;48.562;9.196;2024-01-16T01:53:33;-0.50;99.90
33011;DHT22;19370;48.562;9.196;2024-01-16T01:56:04;-0.40;99.90
33011;DHT22;19370;48.562;9.196;2024-01-16T01:58:34;-0.50;99.90
33011;DHT22;19370;48.562;9.196;2024-01-16T02:01:01;-0.40;99.90
33011;DHT22;19370;48.562;9.196;2024-01-16T02:03:29;-0.50;99.90
33011;DHT22;19370;48.562;9.196;2024-01-16T02:05:56;-0.50;99.90
33011;DHT22;19370;48.562;9.196;2024-01-16T02:08:24;-0.40;99.90
33011;DHT22;19370;48.562;9.196;2024-01-16T02:10:50;-0.40;99.90
33011;DHT22;19370;48.562;9.196;2024-01-16T02:13:16;-0.40;99.90
33011;DHT22;19370;48.562;9.196;2024-01-16T02:15:58;-0.50;99.90
33011;DHT22;19370;48.562;9.196;2024-01-16T02:18:24;-0.50;99.90
33011;DHT22;19370;48.562;9.196;2024-01-16T02:20:49;-0.50;99.90
33011;DHT22;19370;48.562;9.196;2024-01-16T02:23:24;-0.50;99.90
33011;DHT22;19370;48.562;9.196;2024-01-16T02:25:51;-0.50;99.90
33011;DHT22;19370;48.562;9.196;2024-01-16T02:28:17;-0.50;99.90
33011;DHT22;19370;48.562;9.196;2024-01-16T02:30:42;-0.40;99.90
33011;DHT22;19370;48.562;9.196;2024-01-16T02:33:09;-0.50;99.90
33011;DHT22;19370;48.562;9.196;2024-01-16T02:35:34;-0.50;99.90
33011;DHT22;19370;48.562;9.196;2024-01-16T02:38:00;-0.50;99.90
33011;DHT22;19370;48.562;9.196;2024-01-16T10:16:57;2.40;99.90
33011;DHT22;19370;48.562;9.196;2024-01-16T10:23:14;2.20;99.90
33011;DHT22;19370;48.562;9.196;2024-01-16T10:30:11;2.80;99.90
33011;DHT22;19370;48.562;9.196;2024-01-16T11:20:37;9.60;79.90
33011;DHT22;19370;48.562;9.196;2024-01-16T13:25:43;9.90;59.10
33011;DHT22;19370;48.562;9.196;2024-01-16T13:46:25;9.40;60.10
33011;DHT22;19370;48.562;9.196;2024-01-16T13:49:22;9.30;60.80
33011;DHT22;19370;48.562;9.196;2024-01-16T13:52:12;9.20;61.20
33011;DHT22;19370;48.562;9.196;2024-01-16T13:54:39;9.00;60.50
33011;DHT22;19370;48.562;9.196;2024-01-16T13:57:06;8.90;60.60
33011;DHT22;19370;48.562;9.196;2024-01-16T13:59:34;8.90;60.10
33011;DHT22;19370;48.562;9.196;2024-01-16T14:02:00;8.90;60.20
33011;DHT22;19370;48.562;9.196;2024-01-16T14:04:26;8.90;60.20
33011;DHT22;19370;48.562;9.196;2024-01-16T16:25:44;1.00;88.90
33011;DHT22;19370;48.562;9.196;2024-01-16T16:28:12;0.90;89.50
33011;DHT22;19370;48.562;9.196;2024-01-16T16:30:38;0.90;89.40
33011;DHT22;19370;48.562;9.196;2024-01-16T16:33:05;0.80;90.20
33011;DHT22;19370;48.562;9.196;2024-01-16T16:35:32;0.70;90.50
33011;DHT22;19370;48.562;9.196;2024-01-16T16:38:01;0.70;90.80
33011;DHT22;19370;48.562;9.196;2024-01-16T16:40:28;0.60;91.00
33011;DHT22;19370;48.562;9.196;2024-01-16T16:42:55;0.60;91.00
33011;DHT22;19370;48.562;9.196;2024-01-16T16:45:21;0.60;91.30
33011;DHT22;19370;48.562;9.196;2024-01-16T16:47:52;0.50;91.40
33011;DHT22;19370;48.562;9.196;2024-01-16T16:50:19;0.50;91.50
33011;DHT22;19370;48.562;9.196;2024-01-16T16:52:45;0.40;91.80
33011;DHT22;19370;48.562;9.196;2024-01-16T16:55:14;0.40;92.00
33011;DHT22;19370;48.562;9.196;2024-01-16T16:57:42;0.40;92.20
33011;DHT22;19370;48.562;9.196;2024-01-16T17:00:08;0.30;92.10
33011;DHT22;19370;48.562;9.196;2024-01-16T17:02:34;0.30;92.50
33011;DHT22;19370;48.562;9.196;2024-01-16T17:05:04;0.30;92.80
33011;DHT22;19370;48.562;9.196;2024-01-16T17:07:31;0.20;93.00
33011;DHT22;19370;48.562;9.196;2024-01-16T17:09:59;0.20;93.10
33011;DHT22;19370;48.562;9.196;2024-01-16T17:12:25;0.10;93.40
33011;DHT22;19370;48.562;9.196;2024-01-16T17:14:58;0.10;93.40
33011;DHT22;19370;48.562;9.196;2024-01-16T17:17:27;0.10;93.40
33011;DHT22;19370;48.562;9.196;2024-01-16T17:20:08;0.00;93.60
33011;DHT22;19370;48.562;9.196;2024-01-16T17:22:40;0.00;93.80
33011;DHT22;19370;48.562;9.196;2024-01-16T17:25:07;0.00;94.20
33011;DHT22;19370;48.562;9.196;2024-01-16T17:27:33;-0.10;94.40
33011;DHT22;19370;48.562;9.196;2024-01-16T17:30:00;-0.10;94.60
33011;DHT22;19370;48.562;9.196;2024-01-16T17:32:27;-0.10;94.60
33011;DHT22;19370;48.562;9.196;2024-01-16T17:34:52;-0.10;94.80
33011;DHT22;19370;48.562;9.196;2024-01-16T17:37:20;-0.20;94.90
33011;DHT22;19370;48.562;9.196;2024-01-16T17:39:46;-0.20;94.90
33011;DHT22;19370;48.562;9.196;2024-01-16T17:42:13;-0.20;94.90
33011;DHT22;19370;48.562;9.196;2024-01-16T17:44:48;-0.30;95.00
33011;DHT22;19370;48.562;9.196;2024-01-16T17:47:15;-0.30;95.20
33011;DHT22;19370;48.562;9.196;2024-01-16T17:49:49;-0.30;95.20
33011;DHT22;19370;48.562;9.196;2024-01-16T17:52:17;-0.30;95.40
33011;DHT22;19370;48.562;9.196;2024-01-16T17:54:49;-0.40;95.50
33011;DHT22;19370;48.562;9.196;2024-01-16T17:57:21;-0.40;95.30
33011;DHT22;19370;48.562;9.196;2024-01-16T17:59:52;-0.40;95.50
33011;DHT22;19370;48.562;9.196;2024-01-16T18:02:17;-0.40;95.70
33011;DHT22;19370;48.562;9.196;2024-01-16T18:04:52;-0.40;95.70
33011;DHT22;19370;48.562;9.196;2024-01-16T18:07:18;-0.40;96.00
33011;DHT22;19370;48.562;9.196;2024-01-16T18:09:48;-0.50;96.00
33011;DHT22;19370;48.562;9.196;2024-01-16T18:12:14;-0.50;96.00
33011;DHT22;19370;48.562;9.196;2024-01-16T18:14:40;-0.50;95.90
33011;DHT22;19370;48.562;9.196;2024-01-16T18:17:07;-0.60;96.10
33011;DHT22;19370;48.562;9.196;2024-01-16T18:19:35;-0.60;96.00
33011;DHT22;19370;48.562;9.196;2024-01-16T18:22:02;-0.60;96.10
33011;DHT22;19370;48.562;9.196;2024-01-16T18:24:29;-0.60;96.90
33011;DHT22;19370;48.562;9.196;2024-01-16T18:26:55;-0.60;97.40
33011;DHT22;19370;48.562;9.196;2024-01-16T18:29:21;-0.60;97.70
33011;DHT22;19370;48.562;9.196;2024-01-16T18:31:47;-0.60;96.70
33011;DHT22;19370;48.562;9.196;2024-01-16T18:34:18;-0.50;97.20
33011;DHT22;19370;48.562;9.196;2024-01-16T18:36:47;-0.50;97.00
33011;DHT22;19370;48.562;9.196;2024-01-16T18:39:16;-0.40;97.80
33011;DHT22;19370;48.562;9.196;2024-01-16T18:41:50;-0.40;98.20
33011;DHT22;19370;48.562;9.196;2024-01-16T18:44:19;-0.30;98.20
33011;DHT22;19370;48.562;9.196;2024-01-16T18:46:46;-0.30;98.30
33011;DHT22;19370;48.562;9.196;2024-01-16T18:49:12;-0.20;97.50
33011;DHT22;19370;48.562;9.196;2024-01-16T18:51:39;-0.20;97.00
33011;DHT22;19370;48.562;9.196;2024-01-16T18:54:07;-0.30;97.30
33011;DHT22;19370;48.562;9.196;2024-01-16T18:56:33;-0.30;98.00
33011;DHT22;19370;48.562;9.196;2024-01-16T18:59:02;-0.30;98.00
33011;DHT22;19370;48.562;9.196;2024-01-16T19:01:27;-0.30;98.00
33011;DHT22;19370;48.562;9.196;2024-01-16T19:03:57;-0.30;97.70
33011;DHT22;19370;48.562;9.196;2024-01-16T19:06:26;-0.30;98.30
33011;DHT22;19370;48.562;9.196;2024-01-16T19:08:52;-0.30;98.20
33011;DHT22;19370;48.562;9.196;2024-01-16T19:11:19;-0.30;98.30
33011;DHT22;19370;48.562;9.196;2024-01-16T19:13:48;-0.40;98.30
33011;DHT22;19370;48.562;9.196;2024-01-16T19:16:15;-0.40;98.20
33011;DHT22;19370;48.562;9.196;2024-01-16T19:19:04;-0.40;98.30
33011;DHT22;19370;48.562;9.196;2024-01-16T19:21:31;-0.40;98.10
33011;DHT22;19370;48.562;9.196;2024-01-16T19:24:01;-0.40;98.00
33011;DHT22;19370;48.562;9.196;2024-01-16T19:26:32;-0.50;98.60
33011;DHT22;19370;48.562;9.196;2024-01-16T19:29:00;-0.50;98.20
33011;DHT22;19370;48.562;9.196;2024-01-16T19:31:30;-0.40;98.10
33011;DHT22;19370;48.562;9.196;2024-01-16T19:34:17;-0.40;98.20
33011;DHT22;19370;48.562;9.196;2024-01-16T19:36:49;-0.40;97.70
33011;DHT22;19370;48.562;9.196;2024-01-16T19:39:15;-0.50;97.80
33011;DHT22;19370;48.562;9.196;2024-01-16T19:41:57;-0.60;99.60
33011;DHT22;19370;48.562;9.196;2024-01-16T19:44:31;-0.60;99.60
33011;DHT22;19370;48.562;9.196;2024-01-16T19:46:57;-0.60;99.20
33011;DHT22;19370;48.562;9.196;2024-01-16T19:49:23;-0.70;99.00
33011;DHT22;19370;48.562;9.196;2024-01-16T19:52:22;-0.70;99.40
33011;DHT22;19370;48.562;9.196;2024-01-16T19:55:12;-0.70;99.40
33011;DHT22;19370;48.562;9.196;2024-01-16T19:57:55;-0.70;98.80
33011;DHT22;19370;48.562;9.196;2024-01-16T20:00:22;-0.60;98.70
33011;DHT22;19370;48.562;9.196;2024-01-16T20:02:57;-0.60;98.70
33011;DHT22;19370;48.562;9.196;2024-01-16T20:05:37;-0.60;99.00
33011;DHT22;19370;48.562;9.196;2024-01-16T20:08:30;-0.60;99.00
33011;DHT22;19370;48.562;9.196;2024-01-16T20:10:57;-0.60;99.60
33011;DHT22;19370;48.562;9.196;2024-01-16T20:16:50;-0.60;99.90
33011;DHT22;19370;48.562;9.196;2024-01-16T20:19:19;-0.60;99.90
33011;DHT22;19370;48.562;9.196;2024-01-16T20:21:48;-0.60;99.90
33011;DHT22;19370;48.562;9.196;2024-01-16T20:24:55;-0.50;99.90
33011;DHT22;19370;48.562;9.196;2024-01-16T20:31:11;-0.60;99.20
33011;DHT22;19370;48.562;9.196;2024-01-16T20:33:44;-0.60;99.30
33011;DHT22;19370;48.562;9.196;2024-01-16T20:36:23;-0.70;98.60
33011;DHT22;19370;48.562;9.196;2024-01-16T20:38:53;-0.80;98.60
33011;DHT22;19370;48.562;9.196;2024-01-16T20:41:19;-0.80;98.90
33011;DHT22;19370;48.562;9.196;2024-01-16T20:44:13;-0.90;99.00
33011;DHT22;19370;48.562;9.196;2024-01-16T20:47:02;-1.00;99.10
33011;DHT22;19370;48.562;9.196;2024-01-16T20:49:57;-1.10;99.40
33011;DHT22;19370;48.562;9.196;2024-01-16T20:52:38;-1.10;99.90
33011;DHT22;19370;48.562;9.196;2024-01-16T20:55:07;-1.10;99.90
33011;DHT22;19370;48.562;9.196;2024-01-16T20:57:52;-1.00;99.90
33011;DHT22;19370;48.562;9.196;2024-01-16T21:00:25;-1.00;99.80
33011;DHT22;19370;48.562;9.196;2024-01-16T21:03:04;-1.10;99.70
33011;DHT22;19370;48.562;9.196;2024-01-16T21:06:00;-1.10;99.90
33011;DHT22;19370;48.562;9.196;2024-01-16T21:08:34;-1.20;99.80
33011;DHT22;19370;48.562;9.196;2024-01-16T21:11:01;-1.20;99.90
33011;DHT22;19370;48.562;9.196;2024-01-16T21:16:56;-1.20;99.90
33011;DHT22;19370;48.562;9.196;2024-01-16T21:20:06;-1.20;99.90
33011;DHT22;19370;48.562;9.196;2024-01-16T21:22:36;-1.30;99.90
33011;DHT22;19370;48.562;9.196;2024-01-16T21:25:26;-1.30;99.90
